Time;durP1;ratioP1;P1;durP2;ratioP2;P2;SDS_P1;SDS_P2;PMS_P1;PMS_P2;Temp;Humidity;BMP_temperature;BMP_pressure;BME280_temperature;BME280_humidity;BME280_pressure;Samples;Min_cycle;Max_cycle;Signal;HPM_P1;HPM_P2
2023/01/07 00:01:43;;;;;;;22.47;21.47;;;22.30;70.60;;;;;;5054075;28;21015;-54
2023/01/07 00:04:12;;;;;;;22.60;21.50;;;22.20;70.70;;;;;;5055713;28;20446;-52
2023/01/07 00:06:42;;;;;;;22.77;21.43;;;22.20;70.90;;;;;;5055547;28;20953;-54
2023/01/07 00:09:13;;;;;;;22.07;21.17;;;22.20;70.90;;;;;;5054654;28;20484;-54
2023/01/07 00:11:41;;;;;;;22.80;21.80;;;22.20;71.20;;;;;;5055028;28;20440;-53
2023/01/07 00:14:11;;;;;;;22.87;21.87;;;22.20;71.30;;;;;;5055126;28;20443;-53
2023/01/07 00:16:41;;;;;;;21.90;21.00;;;22.20;71.30;;;;;;5055042;28;20502;-55
2023/01/07 00:19:12;;;;;;;23.30;22.20;;;22.10;71.40;;;;;;5054593;28;20531;-56
2023/01/07 00:21:40;;;;;;;23.03;22.03;;;22.10;71.50;;;;;;5055194;28;20499;-55
2023/01/07 00:24:11;;;;;;;22.17;21.27;;;22.10;71.70;;;;;;5054577;28;20454;-57
2023/01/07 00:26:39;;;;;;;22.27;21.37;;;22.10;71.80;;;;;;5055013;28;20440;-55
2023/01/07 00:29:07;;;;;;;22.80;21.80;;;22.10;71.90;;;;;;5054555;28;20484;-56
2023/01/07 00:31:37;;;;;;;24.57;23.07;;;22.00;72.70;;;;;;5055227;28;20451;-55
2023/01/07 00:34:08;;;;;;;23.07;21.80;;;22.00;71.90;;;;;;5054840;28;20547;-55
2023/01/07 00:36:39;;;;;;;23.10;22.00;;;22.00;72.10;;;;;;5054825;28;20451;-54
2023/01/07 00:39:09;;;;;;;22.30;21.20;;;22.00;72.30;;;;;;5054619;28;20476;-53
2023/01/07 00:41:36;;;;;;;22.33;21.33;;;21.90;72.30;;;;;;5054589;28;20980;-55
2023/01/07 00:44:05;;;;;;;22.43;21.53;;;21.90;72.40;;;;;;5054708;28;20449;-56
2023/01/07 00:46:32;;;;;;;21.90;21.00;;;21.90;72.40;;;;;;5054510;28;20517;-55
2023/01/07 00:49:00;;;;;;;23.00;22.00;;;21.90;72.50;;;;;;5053806;28;20533;-56
2023/01/07 00:51:29;;;;;;;23.00;21.80;;;21.90;72.70;;;;;;5054434;28;20509;-55
2023/01/07 00:53:56;;;;;;;22.40;21.50;;;21.90;72.70;;;;;;5054398;28;20453;-52
2023/01/07 00:56:24;;;;;;;22.13;21.23;;;21.90;72.80;;;;;;5053891;28;20472;-55
2023/01/07 00:58:51;;;;;;;22.00;21.00;;;21.90;72.80;;;;;;5053784;28;20491;-53
2023/01/07 01:01:19;;;;;;;23.00;21.87;;;21.80;73.00;;;;;;5053974;28;20474;-56
2023/01/07 01:03:46;;;;;;;22.90;21.80;;;21.80;73.00;;;;;;5054070;28;20478;-54
2023/01/07 01:06:15;;;;;;;22.13;21.23;;;21.80;73.00;;;;;;5053536;28;20445;-54
2023/01/07 01:08:46;;;;;;;22.57;21.60;;;21.80;73.10;;;;;;5053556;28;20880;-56
2023/01/07 01:11:15;;;;;;;22.73;21.60;;;21.80;73.20;;;;;;5053599;28;20575;-54
2023/01/07 01:13:43;;;;;;;22.10;21.20;;;21.80;73.30;;;;;;5052567;28;20440;-55
2023/01/07 01:16:13;;;;;;;22.40;21.40;;;21.80;73.40;;;;;;5053667;28;20820;-55
2023/01/07 01:18:41;;;;;;;22.10;21.20;;;21.80;73.40;;;;;;5053692;28;20468;-56
2023/01/07 01:21:10;;;;;;;22.20;21.20;;;21.80;73.40;;;;;;5053325;28;20486;-56
2023/01/07 01:23:37;;;;;;;22.43;21.53;;;21.70;73.40;;;;;;5053672;28;20452;-55
2023/01/07 01:26:09;;;;;;;23.13;22.13;;;21.70;73.50;;;;;;5053671;28;20933;-54
2023/01/07 01:28:36;;;;;;;22.00;21.10;;;21.70;73.50;;;;;;5053667;28;20444;-56
2023/01/07 01:31:04;;;;;;;22.23;21.33;;;21.70;73.70;;;;;;5053111;28;20483;-54
2023/01/07 01:33:31;;;;;;;22.47;21.47;;;21.70;73.60;;;;;;5053127;28;20455;-56
2023/01/07 01:35:58;;;;;;;22.50;21.50;;;21.70;73.70;;;;;;5052863;28;20842;-57
2023/01/07 01:38:26;;;;;;;22.40;21.40;;;21.70;73.80;;;;;;5053174;28;20459;-57
2023/01/07 01:40:53;;;;;;;22.20;21.20;;;21.70;73.70;;;;;;5053195;28;21003;-56
2023/01/07 01:43:31;;;;;;;22.83;21.93;;;21.70;73.80;;;;;;5053223;28;20865;-55
2023/01/07 01:46:02;;;;;;;22.37;21.47;;;21.60;73.80;;;;;;5052690;28;20452;-54
2023/01/07 01:48:32;;;;;;;22.30;21.37;;;21.60;73.80;;;;;;5053302;28;20849;-54
2023/01/07 01:51:01;;;;;;;21.80;20.90;;;21.60;73.90;;;;;;5052527;28;20480;-55
2023/01/07 01:53:32;;;;;;;22.17;21.13;;;21.60;73.90;;;;;;5052622;28;20950;-56
2023/01/07 01:56:04;;;;;;;21.63;20.73;;;21.60;74.10;;;;;;5052821;28;20483;-52
2023/01/07 01:58:37;;;;;;;21.70;20.80;;;21.60;74.20;;;;;;5052778;28;20448;-55
2023/01/07 02:01:05;;;;;;;22.50;21.60;;;21.60;74.10;;;;;;5052663;28;20758;-55
2023/01/07 02:03:35;;;;;;;21.90;21.00;;;21.60;74.10;;;;;;5052828;28;20509;-53
2023/01/07 02:06:03;;;;;;;21.63;20.73;;;21.60;74.10;;;;;;5052497;28;20942;-60
2023/01/07 02:08:32;;;;;;;22.00;21.10;;;21.60;74.30;;;;;;5052484;28;20448;-55
2023/01/07 02:11:10;;;;;;;22.30;21.30;;;21.50;74.10;;;;;;5052145;28;20476;-55
2023/01/07 02:13:50;;;;;;;22.10;21.20;;;21.60;74.30;;;;;;5052379;28;20440;-52
2023/01/07 02:16:23;;;;;;;22.50;21.43;;;21.50;74.20;;;;;;5052306;28;20446;-52
2023/01/07 02:19:05;;;;;;;22.00;21.10;;;21.50;74.20;;;;;;5052093;28;20476;-54
2023/01/07 02:21:43;;;;;;;21.87;20.97;;;21.50;74.20;;;;;;5051198;28;20452;-55
2023/01/07 02:24:40;;;;;;;21.80;20.93;;;21.50;74.20;;;;;;5051487;28;20455;-54
2023/01/07 02:27:25;;;;;;;21.83;20.93;;;21.50;74.20;;;;;;5016974;28;20448;-56
2023/01/07 02:30:22;;;;;;;21.87;20.97;;;21.50;74.20;;;;;;5051562;28;20494;-56
2023/01/07 02:33:15;;;;;;;22.70;21.70;;;21.50;74.20;;;;;;5051752;28;20476;-56
2023/01/07 02:36:17;;;;;;;22.03;21.13;;;21.50;74.40;;;;;;5015562;28;20449;-55
2023/01/07 02:38:59;;;;;;;21.70;20.90;;;21.50;74.50;;;;;;5051443;28;20872;-53
2023/01/07 02:41:34;;;;;;;22.00;21.10;;;21.50;74.50;;;;;;5051695;28;20436;-54
2023/01/07 02:44:07;;;;;;;21.87;20.97;;;21.50;74.60;;;;;;5051958;28;20999;-54
2023/01/07 02:46:40;;;;;;;21.87;20.90;;;21.50;74.60;;;;;;5051493;28;20440;-56
2023/01/07 02:49:11;;;;;;;21.60;20.80;;;21.50;74.60;;;;;;5051257;28;20537;-55
2023/01/07 02:51:40;;;;;;;22.00;21.10;;;21.50;74.70;;;;;;5050466;28;20509;-57
2023/01/07 02:54:12;;;;;;;21.80;20.90;;;21.50;74.50;;;;;;5051265;28;20448;-54
2023/01/07 02:56:59;;;;;;;21.90;20.90;;;21.50;74.60;;;;;;5051175;28;20448;-54
2023/01/07 02:59:40;;;;;;;22.20;21.30;;;21.50;74.60;;;;;;5051193;28;20546;-55
2023/01/07 03:02:30;;;;;;;21.00;20.20;;;21.50;74.70;;;;;;5031376;28;20452;-58
2023/01/07 03:05:16;;;;;;;21.10;20.30;;;21.50;74.80;;;;;;5031366;28;20449;-56
2023/01/07 03:08:00;;;;;;;21.67;20.70;;;21.40;74.80;;;;;;5040311;28;20807;-56
2023/01/07 03:10:34;;;;;;;21.30;20.50;;;21.40;74.80;;;;;;5051084;28;20992;-55
2023/01/07 03:13:05;;;;;;;21.50;20.63;;;21.40;74.80;;;;;;5051248;28;20444;-56
2023/01/07 03:15:36;;;;;;;21.20;20.40;;;21.40;75.00;;;;;;5051054;28;20450;-53
2023/01/07 03:18:07;;;;;;;21.30;20.40;;;21.50;75.10;;;;;;5011958;28;1128957;-56
2023/01/07 03:20:39;;;;;;;21.50;20.60;;;21.50;75.10;;;;;;5052105;28;20467;-55
2023/01/07 03:23:10;;;;;;;21.43;20.53;;;21.40;75.10;;;;;;5052124;28;20520;-56
2023/01/07 03:25:41;;;;;;;21.93;21.03;;;21.50;75.20;;;;;;5052426;28;20444;-54
2023/01/07 03:28:11;;;;;;;21.00;20.20;;;21.40;75.00;;;;;;5052539;28;20436;-58
2023/01/07 03:30:38;;;;;;;21.67;20.80;;;21.40;75.00;;;;;;5051711;28;20487;-55
2023/01/07 03:33:12;;;;;;;21.60;20.80;;;21.50;75.80;;;;;;5052092;28;20448;-57
2023/01/07 03:35:45;;;;;;;21.27;20.37;;;21.40;75.00;;;;;;5053461;28;20446;-54
2023/01/07 03:38:15;;;;;;;21.70;20.80;;;21.40;75.00;;;;;;5055933;28;20451;-58
2023/01/07 03:40:42;;;;;;;21.20;20.40;;;21.40;75.00;;;;;;5055330;28;20468;-57
2023/01/07 03:43:12;;;;;;;22.00;21.10;;;21.40;75.10;;;;;;5055734;28;20471;-53
2023/01/07 03:45:39;;;;;;;22.23;21.03;;;21.40;75.10;;;;;;5055697;28;20444;-57
2023/01/07 03:48:06;;;;;;;21.97;21.17;;;21.40;75.00;;;;;;5055117;28;20973;-54
2023/01/07 03:50:34;;;;;;;21.53;20.73;;;21.40;75.10;;;;;;5055206;28;20483;-56
2023/01/07 03:53:03;;;;;;;21.70;20.80;;;21.40;75.10;;;;;;5055592;28;20455;-56
2023/01/07 03:55:31;;;;;;;21.57;20.67;;;21.40;75.10;;;;;;5055143;28;20919;-56
2023/01/07 03:57:59;;;;;;;21.60;20.80;;;21.40;75.10;;;;;;5055446;28;20444;-57
2023/01/07 04:00:27;;;;;;;21.97;21.07;;;21.40;75.20;;;;;;5055043;28;20463;-54
2023/01/07 04:02:55;;;;;;;21.93;21.00;;;21.40;75.10;;;;;;5054856;28;20444;-56
2023/01/07 04:05:22;;;;;;;21.97;21.07;;;21.30;75.10;;;;;;5055428;28;20543;-55
2023/01/07 04:07:50;;;;;;;21.90;21.10;;;21.40;75.10;;;;;;5055260;28;20490;-54
2023/01/07 04:10:20;;;;;;;22.53;21.63;;;21.40;75.10;;;;;;5054900;28;20511;-57
2023/01/07 04:12:48;;;;;;;22.33;21.43;;;21.30;75.10;;;;;;5054954;28;20555;-53
2023/01/07 04:15:15;;;;;;;23.00;22.00;;;21.30;75.10;;;;;;5055043;28;20480;-55
2023/01/07 04:17:42;;;;;;;22.53;21.53;;;21.30;75.20;;;;;;5055287;28;20448;-55
2023/01/07 04:20:11;;;;;;;21.63;20.73;;;21.30;75.20;;;;;;5055103;28;20513;-56
2023/01/07 04:22:39;;;;;;;22.10;21.20;;;21.30;75.20;;;;;;5055571;28;20539;-55
2023/01/07 04:25:08;;;;;;;22.50;21.60;;;21.30;75.10;;;;;;5055290;28;20450;-55
2023/01/07 04:27:37;;;;;;;22.00;21.10;;;21.30;75.30;;;;;;5054735;28;20796;-54
2023/01/07 04:30:05;;;;;;;21.97;21.17;;;21.30;75.30;;;;;;5054442;28;20474;-56
2023/01/07 04:32:32;;;;;;;21.73;20.93;;;21.30;75.30;;;;;;5054884;28;20447;-54
2023/01/07 04:34:59;;;;;;;21.63;20.83;;;21.30;75.30;;;;;;5055086;28;20504;-55
2023/01/07 04:37:27;;;;;;;22.17;21.27;;;21.30;75.30;;;;;;5054981;28;20449;-57
2023/01/07 04:39:55;;;;;;;21.67;20.87;;;21.30;75.20;;;;;;5054999;28;20471;-55
2023/01/07 04:42:22;;;;;;;22.00;21.10;;;21.30;75.30;;;;;;5054660;28;20456;-56
2023/01/07 04:44:52;;;;;;;21.80;20.90;;;21.30;75.30;;;;;;5054285;28;20471;-55
2023/01/07 04:47:19;;;;;;;21.97;21.07;;;21.30;75.20;;;;;;5054719;28;20452;-55
2023/01/07 04:49:46;;;;;;;22.00;21.20;;;21.30;75.30;;;;;;5053870;28;20468;-54
2023/01/07 04:52:14;;;;;;;21.83;21.03;;;21.30;75.20;;;;;;5054069;28;21024;-55
2023/01/07 04:54:41;;;;;;;22.20;21.30;;;21.30;75.10;;;;;;5054558;28;20472;-55
2023/01/07 04:57:09;;;;;;;22.80;21.80;;;21.30;75.20;;;;;;5054439;28;20862;-56
2023/01/07 04:59:36;;;;;;;22.77;21.60;;;21.30;75.20;;;;;;5053541;28;20563;-57
2023/01/07 05:02:06;;;;;;;22.23;21.33;;;21.30;75.20;;;;;;5054179;28;20946;-55
2023/01/07 05:04:33;;;;;;;21.97;20.97;;;21.30;75.20;;;;;;5054158;28;20876;-53
2023/01/07 05:07:01;;;;;;;21.83;20.93;;;21.30;75.30;;;;;;5053711;28;20452;-55
2023/01/07 05:09:28;;;;;;;22.13;21.20;;;21.30;75.30;;;;;;5054127;28;20833;-55
2023/01/07 05:11:56;;;;;;;22.07;21.17;;;21.30;75.30;;;;;;5053872;28;20479;-55
2023/01/07 05:14:23;;;;;;;21.80;21.00;;;21.30;75.20;;;;;;5053520;28;20452;-54
2023/01/07 05:16:50;;;;;;;21.83;21.03;;;21.30;75.20;;;;;;5054272;28;20445;-54
2023/01/07 05:19:20;;;;;;;21.73;20.90;;;21.30;75.30;;;;;;5054194;28;20487;-55
2023/01/07 05:21:48;;;;;;;22.90;21.70;;;21.30;75.20;;;;;;5048330;22;20497;-56
2023/01/07 05:24:16;;;;;;;21.73;20.70;;;21.30;75.20;;;;;;5033686;28;20449;-57
2023/01/07 05:26:44;;;;;;;21.90;21.00;;;21.30;75.30;;;;;;5033390;28;20445;-57
2023/01/07 05:29:11;;;;;;;21.87;21.07;;;21.30;75.40;;;;;;5033354;28;20850;-55
2023/01/07 05:31:39;;;;;;;22.37;21.20;;;21.30;75.40;;;;;;5021395;28;20532;-57
2023/01/07 05:34:07;;;;;;;21.57;20.67;;;21.30;75.40;;;;;;5013429;28;20477;-57
2023/01/07 05:36:36;;;;;;;22.20;21.33;;;21.30;75.30;;;;;;5013517;28;20446;-56
2023/01/07 05:39:05;;;;;;;22.90;21.60;;;21.30;75.40;;;;;;5013148;28;20446;-58
2023/01/07 05:41:32;;;;;;;21.97;21.07;;;21.20;75.40;;;;;;5013259;28;20561;-58
2023/01/07 05:44:00;;;;;;;22.30;21.40;;;21.20;75.40;;;;;;5013673;28;20454;-54
2023/01/07 05:46:28;;;;;;;22.73;21.83;;;21.20;75.40;;;;;;5013004;28;20518;-55
2023/01/07 05:48:56;;;;;;;22.20;21.30;;;21.30;75.50;;;;;;5012950;28;20580;-55
2023/01/07 05:51:23;;;;;;;21.50;20.70;;;21.20;75.40;;;;;;5012866;28;20498;-58
2023/01/07 05:53:52;;;;;;;21.60;20.80;;;21.20;75.40;;;;;;5013168;28;20481;-57
2023/01/07 05:56:19;;;;;;;21.80;20.90;;;21.20;75.40;;;;;;5012993;28;20454;-57
2023/01/07 05:58:47;;;;;;;21.80;20.90;;;21.20;75.40;;;;;;5012308;28;20534;-58
2023/01/07 06:01:14;;;;;;;21.63;20.83;;;21.20;75.40;;;;;;5012917;28;20493;-56
2023/01/07 06:03:41;;;;;;;21.80;21.00;;;21.20;75.40;;;;;;5013056;28;20894;-58
2023/01/07 06:06:09;;;;;;;22.40;21.30;;;21.20;75.40;;;;;;5013798;28;20446;-59
2023/01/07 06:08:37;;;;;;;22.27;21.37;;;21.20;75.50;;;;;;5013189;28;20472;-58
2023/01/07 06:11:08;;;;;;;21.93;20.93;;;21.20;75.40;;;;;;5013064;28;20503;-58
2023/01/07 06:13:36;;;;;;;22.20;21.20;;;21.30;75.50;;;;;;5013293;28;20450;-59
2023/01/07 06:16:05;;;;;;;22.90;22.00;;;21.20;75.50;;;;;;5013168;28;20450;-54
2023/01/07 06:18:32;;;;;;;23.70;22.70;;;21.20;75.40;;;;;;5012618;28;20450;-55
2023/01/07 06:21:00;;;;;;;22.23;21.43;;;21.20;75.40;;;;;;5012470;28;20548;-53
2023/01/07 06:23:28;;;;;;;22.17;21.37;;;21.20;75.50;;;;;;5012426;28;20529;-56
2023/01/07 06:25:56;;;;;;;22.27;21.47;;;21.20;76.30;;;;;;5012497;28;20785;-57
2023/01/07 06:28:25;;;;;;;22.33;21.47;;;21.20;75.50;;;;;;5012716;28;20485;-55
2023/01/07 06:30:52;;;;;;;22.53;21.67;;;21.20;75.50;;;;;;5012027;28;20540;-54
2023/01/07 06:33:20;;;;;;;22.37;21.47;;;21.20;75.50;;;;;;5012467;28;20456;-54
2023/01/07 06:35:47;;;;;;;22.40;21.50;;;21.20;75.40;;;;;;5012408;28;20508;-53
2023/01/07 06:38:15;;;;;;;21.30;20.50;;;21.20;75.50;;;;;;5012343;28;21005;-56
2023/01/07 06:40:43;;;;;;;21.00;20.20;;;21.20;75.50;;;;;;5011826;28;20999;-57
2023/01/07 06:43:10;;;;;;;21.40;20.60;;;21.20;75.40;;;;;;5012259;28;20457;-55
2023/01/07 06:45:39;;;;;;;21.10;20.30;;;21.20;75.50;;;;;;5012177;28;20869;-55
2023/01/07 06:48:06;;;;;;;20.87;20.07;;;21.20;75.40;;;;;;5012175;28;20457;-53
2023/01/07 06:50:33;;;;;;;21.50;20.60;;;21.20;75.40;;;;;;5011766;28;20470;-52
2023/01/07 06:53:00;;;;;;;21.77;20.77;;;21.20;75.40;;;;;;5012181;28;20485;-57
2023/01/07 06:55:27;;;;;;;21.60;20.70;;;21.20;75.40;;;;;;5011846;28;20453;-53
2023/01/07 06:57:54;;;;;;;21.80;20.90;;;21.20;75.40;;;;;;5011666;28;20458;-54
2023/01/07 07:00:21;;;;;;;21.80;21.00;;;21.20;75.40;;;;;;5011752;28;20445;-53
2023/01/07 07:02:49;;;;;;;21.90;21.10;;;21.10;75.20;;;;;;5011970;28;20734;-55
2023/01/07 07:05:16;;;;;;;21.37;20.57;;;21.20;75.40;;;;;;5011862;28;20452;-56
2023/01/07 07:07:43;;;;;;;21.70;20.80;;;21.20;75.40;;;;;;5011972;28;20455;-55
2023/01/07 07:10:11;;;;;;;22.30;21.40;;;21.10;75.30;;;;;;5012028;28;20528;-56
2023/01/07 07:12:39;;;;;;;22.10;21.30;;;21.20;75.40;;;;;;5015233;28;20482;-57
2023/01/07 07:15:07;;;;;;;22.07;21.20;;;21.10;76.00;;;;;;5016039;28;20482;-55
2023/01/07 07:17:34;;;;;;;22.00;21.10;;;21.20;75.40;;;;;;5016022;28;20450;-58
2023/01/07 07:20:03;;;;;;;22.60;21.70;;;21.10;75.20;;;;;;5015756;28;20450;-55
2023/01/07 07:22:30;;;;;;;22.23;21.40;;;21.20;75.40;;;;;;5016185;28;20474;-57
2023/01/07 07:24:57;;;;;;;21.57;20.77;;;21.10;75.10;;;;;;5015869;28;20996;-57
2023/01/07 07:27:24;;;;;;;21.70;20.90;;;21.10;75.20;;;;;;5015734;28;20532;-57
2023/01/07 07:29:51;;;;;;;21.50;20.70;;;21.20;75.40;;;;;;5014987;28;20456;-53
2023/01/07 07:32:17;;;;;;;21.77;20.87;;;21.20;75.30;;;;;;5015658;28;20494;-52
2023/01/07 07:34:44;;;;;;;21.27;20.47;;;21.20;75.40;;;;;;5015705;28;20808;-55
2023/01/07 07:37:13;;;;;;;21.50;20.70;;;21.20;75.40;;;;;;5015752;28;20446;-54
2023/01/07 07:39:40;;;;;;;21.60;20.70;;;21.20;75.00;;;;;;5016303;28;20533;-55
2023/01/07 07:42:06;;;;;;;22.30;21.20;;;21.30;75.00;;;;;;5016267;28;21063;-58
2023/01/07 07:44:33;;;;;;;21.30;20.50;;;21.30;75.20;;;;;;5015686;28;20500;-58
2023/01/07 07:47:00;;;;;;;22.00;21.10;;;21.30;74.90;;;;;;5016189;28;20525;-58
2023/01/07 07:49:27;;;;;;;21.87;20.87;;;21.30;75.00;;;;;;5015971;28;20540;-60
2023/01/07 07:51:54;;;;;;;22.40;21.50;;;21.30;75.00;;;;;;5015465;28;20536;-59
2023/01/07 07:54:22;;;;;;;21.50;20.70;;;21.30;74.90;;;;;;5016046;28;20449;-55
2023/01/07 07:56:49;;;;;;;22.10;21.20;;;21.30;75.00;;;;;;5015263;28;20532;-58
2023/01/07 07:59:16;;;;;;;22.00;21.10;;;21.40;75.00;;;;;;5014763;28;20449;-58
2023/01/07 08:01:43;;;;;;;20.63;19.93;;;21.40;75.30;;;;;;5014931;28;20458;-57
2023/01/07 08:04:10;;;;;;;21.17;20.37;;;21.40;75.20;;;;;;5015075;28;21023;-57
2023/01/07 08:06:37;;;;;;;21.47;20.40;;;21.40;75.30;;;;;;5014900;28;20581;-58
2023/01/07 08:09:04;;;;;;;21.90;21.00;;;21.40;75.20;;;;;;5014857;28;20858;-57
2023/01/07 08:11:32;;;;;;;20.90;20.10;;;21.40;75.00;;;;;;5014618;28;21284;-58
2023/01/07 08:13:59;;;;;;;21.73;20.93;;;21.40;75.00;;;;;;5014935;28;20545;-55
2023/01/07 08:16:26;;;;;;;21.73;20.93;;;21.40;75.00;;;;;;5014197;28;20452;-57
2023/01/07 08:18:53;;;;;;;22.30;21.50;;;21.40;74.90;;;;;;5014676;28;20453;-58
2023/01/07 08:21:20;;;;;;;22.20;21.40;;;21.40;74.90;;;;;;5013892;28;20995;-56
2023/01/07 08:23:46;;;;;;;21.70;20.90;;;21.40;75.00;;;;;;5014936;28;20450;-52
2023/01/07 08:26:13;;;;;;;22.53;21.23;;;21.40;75.00;;;;;;5014719;28;20545;-53
2023/01/07 08:28:42;;;;;;;21.80;21.00;;;21.40;75.00;;;;;;5014888;28;20540;-58
2023/01/07 08:31:09;;;;;;;21.83;20.93;;;21.40;75.10;;;;;;5013905;28;20839;-60
2023/01/07 08:33:38;;;;;;;20.37;19.67;;;21.40;75.00;;;;;;5014891;28;20486;-53
2023/01/07 08:36:07;;;;;;;21.90;21.10;;;21.40;74.90;;;;;;5014888;28;20447;-54
2023/01/07 08:38:36;;;;;;;22.07;21.27;;;21.40;75.00;;;;;;5014466;28;20544;-62
2023/01/07 08:41:04;;;;;;;21.90;21.00;;;21.40;75.10;;;;;;5014400;28;20496;-61
2023/01/07 08:43:32;;;;;;;21.67;20.67;;;21.50;75.10;;;;;;5014042;28;20899;-52
2023/01/07 08:46:00;;;;;;;21.93;21.13;;;21.50;74.90;;;;;;5013607;28;20442;-52
2023/01/07 08:48:27;;;;;;;22.30;21.40;;;21.60;74.50;;;;;;5014326;28;20524;-61
2023/01/07 08:50:55;;;;;;;22.50;21.60;;;21.60;74.10;;;;;;5013870;28;21032;-61
2023/01/07 08:53:23;;;;;;;22.50;21.60;;;21.70;74.20;;;;;;5014062;28;20797;-57
2023/01/07 08:55:50;;;;;;;22.53;21.63;;;21.80;73.80;;;;;;5014150;28;20477;-60
2023/01/07 08:58:17;;;;;;;22.07;21.17;;;21.80;73.40;;;;;;5014266;28;20454;-55
2023/01/07 09:00:44;;;;;;;21.73;20.87;;;21.90;73.00;;;;;;5013237;28;20462;-59
2023/01/07 09:03:12;;;;;;;21.70;20.90;;;21.90;72.60;;;;;;5012960;28;21011;-59
2023/01/07 09:05:39;;;;;;;22.00;21.10;;;22.00;72.40;;;;;;5013728;28;20541;-56
2023/01/07 09:08:06;;;;;;;21.97;21.07;;;22.00;72.10;;;;;;5013896;28;20482;-57
2023/01/07 09:10:33;;;;;;;22.20;21.23;;;22.10;72.00;;;;;;5013645;28;20524;-57
2023/01/07 09:13:01;;;;;;;22.20;21.30;;;22.10;71.60;;;;;;5013708;28;20489;-57
2023/01/07 09:15:27;;;;;;;21.70;20.80;;;22.20;71.60;;;;;;5013595;28;20453;-56
2023/01/07 09:17:54;;;;;;;21.73;20.93;;;22.20;71.30;;;;;;5014086;28;20454;-56
2023/01/07 09:20:23;;;;;;;21.97;21.07;;;22.20;71.00;;;;;;5013916;28;20861;-54
2023/01/07 09:22:50;;;;;;;22.20;21.30;;;22.20;70.90;;;;;;5015063;28;20861;-51
2023/01/07 09:25:17;;;;;;;22.30;21.40;;;22.20;70.80;;;;;;5013644;28;20536;-55
2023/01/07 09:27:45;;;;;;;21.40;20.60;;;22.20;70.80;;;;;;5014260;28;20492;-60
2023/01/07 09:30:12;;;;;;;22.00;21.10;;;22.20;70.80;;;;;;5013078;28;20881;-58
2023/01/07 09:32:39;;;;;;;21.97;21.07;;;22.10;70.80;;;;;;5012145;28;20477;-51
2023/01/07 09:35:07;;;;;;;21.13;20.33;;;22.10;70.90;;;;;;5013793;28;20509;-56
2023/01/07 09:37:36;;;;;;;20.90;20.10;;;22.10;71.40;;;;;;5013908;28;20536;-58
2023/01/07 09:40:04;;;;;;;23.10;22.00;;;22.10;71.40;;;;;;5013404;28;20807;-56
2023/01/07 09:42:37;;;;;;;22.83;21.93;;;22.10;71.40;;;;;;5012904;28;20805;-54
2023/01/07 09:45:13;;;;;;;22.03;21.13;;;22.10;71.70;;;;;;5013214;28;20875;-57
2023/01/07 09:47:43;;;;;;;22.63;21.67;;;22.00;71.70;;;;;;5012614;28;20449;-58
2023/01/07 09:50:19;;;;;;;22.20;21.30;;;22.10;71.80;;;;;;5012721;28;20450;-58
2023/01/07 09:52:50;;;;;;;21.73;20.93;;;22.10;71.20;;;;;;5013378;28;20485;-58
2023/01/07 09:55:22;;;;;;;22.50;21.60;;;22.20;71.30;;;;;;5012951;28;20936;-58
2023/01/07 09:57:50;;;;;;;22.50;21.60;;;22.20;70.70;;;;;;5013101;28;20453;-54
2023/01/07 10:00:20;;;;;;;22.30;21.40;;;22.20;70.50;;;;;;5013033;28;20529;-55
2023/01/07 10:03:10;;;;;;;22.30;21.40;;;22.30;70.50;;;;;;5011943;28;20856;-55
2023/01/07 10:05:47;;;;;;;22.33;21.43;;;22.30;70.00;;;;;;5011844;28;20454;-51
2023/01/07 10:08:22;;;;;;;22.53;21.63;;;22.30;69.80;;;;;;5013060;28;20450;-53
2023/01/07 10:10:55;;;;;;;22.20;21.30;;;22.40;69.90;;;;;;5012494;28;20462;-53
2023/01/07 10:13:49;;;;;;;27.00;25.60;;;22.40;70.10;;;;;;5012652;28;20611;-52
2023/01/07 10:16:23;;;;;;;26.70;25.37;;;22.40;70.00;;;;;;5010234;28;20456;-53
2023/01/07 10:18:59;;;;;;;24.42;23.02;;;22.40;70.10;;;;;;5011776;28;20622;-58
2023/01/07 10:21:34;;;;;;;29.00;27.60;;;22.40;69.80;;;;;;5011947;28;20375;-58
2023/01/07 10:24:08;;;;;;;28.13;26.83;;;22.50;69.40;;;;;;5012799;28;20445;-56
2023/01/07 10:26:38;;;;;;;27.93;26.73;;;22.50;69.00;;;;;;5012425;28;20915;-56
2023/01/07 10:29:13;;;;;;;27.87;26.57;;;22.50;68.80;;;;;;5012441;28;20549;-57
2023/01/07 10:31:43;;;;;;;28.63;27.33;;;22.50;68.60;;;;;;5012383;28;20474;-57
2023/01/07 10:34:22;;;;;;;27.30;26.00;;;22.50;68.60;;;;;;5012421;28;20844;-55
2023/01/07 10:37:03;;;;;;;27.57;26.27;;;22.50;68.40;;;;;;5012050;28;20888;-57
2023/01/07 10:39:46;;;;;;;27.37;26.17;;;22.50;68.60;;;;;;5011949;28;20507;-53
2023/01/07 10:42:26;;;;;;;27.97;26.67;;;22.50;68.50;;;;;;5012276;28;20473;-53
2023/01/07 10:45:19;;;;;;;27.33;26.03;;;22.50;68.50;;;;;;5010518;28;20546;-56
2023/01/07 10:48:16;;;;;;;27.10;25.90;;;22.40;68.60;;;;;;5012029;28;20442;-53
2023/01/07 10:50:55;;;;;;;27.03;25.73;;;22.50;68.80;;;;;;4990405;28;20466;-51
2023/01/07 10:53:31;;;;;;;26.37;25.17;;;22.40;68.70;;;;;;5011704;28;20477;-52
2023/01/07 10:56:07;;;;;;;30.53;28.40;;;22.40;68.70;;;;;;5011998;28;20441;-56
2023/01/07 10:58:39;;;;;;;29.23;27.73;;;22.60;69.10;;;;;;5011841;28;20848;-60
2023/01/07 11:01:07;;;;;;;31.80;30.00;;;22.70;69.00;;;;;;5011736;28;20874;-60
2023/01/07 11:03:36;;;;;;;31.60;29.63;;;22.70;68.60;;;;;;5011804;28;20442;-58
2023/01/07 11:06:07;;;;;;;29.60;27.80;;;22.80;68.40;;;;;;5011769;28;20540;-59
2023/01/07 11:08:40;;;;;;;29.63;27.93;;;22.90;68.50;;;;;;5011494;28;20844;-59
2023/01/07 11:11:14;;;;;;;29.55;27.75;;;22.90;68.60;;;;;;5011431;28;20852;-60
2023/01/07 11:13:44;;;;;;;30.23;28.47;;;22.90;68.10;;;;;;5012434;28;20242;-60
2023/01/07 11:16:13;;;;;;;29.07;27.33;;;22.90;67.90;;;;;;5013039;28;20442;-60
2023/01/07 11:18:49;;;;;;;28.80;27.07;;;23.10;68.30;;;;;;5013194;28;20537;-57
2023/01/07 11:21:32;;;;;;;28.90;27.40;;;23.00;67.60;;;;;;5058355;22;20484;-60
2023/01/07 11:24:00;;;;;;;28.43;26.93;;;23.00;67.40;;;;;;5047986;28;20535;-62
2023/01/07 11:26:31;;;;;;;29.30;27.80;;;23.10;67.20;;;;;;5052344;28;20455;-59
2023/01/07 11:29:01;;;;;;;30.17;28.57;;;23.10;67.10;;;;;;5051840;28;20941;-60
2023/01/07 11:31:48;;;;;;;29.47;27.87;;;23.10;67.10;;;;;;5048233;28;20973;-62
2023/01/07 11:34:20;;;;;;;28.67;26.83;;;23.10;66.80;;;;;;5032295;28;20535;-62
2023/01/07 11:36:47;;;;;;;29.30;27.80;;;23.20;66.80;;;;;;5031841;28;20452;-62
2023/01/07 11:39:19;;;;;;;29.57;28.00;;;23.20;66.60;;;;;;5031554;28;20473;-62
2023/01/07 11:41:57;;;;;;;29.83;28.13;;;23.20;66.20;;;;;;5032226;28;20893;-60
2023/01/07 11:44:25;;;;;;;28.20;26.80;;;23.20;66.00;;;;;;5032171;28;20497;-61
2023/01/07 11:46:53;;;;;;;29.80;28.20;;;23.20;66.10;;;;;;5031922;28;20477;-56
2023/01/07 11:49:24;;;;;;;28.93;27.33;;;23.20;66.00;;;;;;5031764;28;20916;-55
2023/01/07 11:51:52;;;;;;;28.40;26.90;;;23.00;65.80;;;;;;5031835;28;20823;-57
2023/01/07 11:54:21;;;;;;;29.80;28.20;;;22.90;65.60;;;;;;5031595;28;20538;-54
2023/01/07 11:56:49;;;;;;;28.50;27.10;;;22.90;65.70;;;;;;5032650;28;20444;-58
2023/01/07 11:59:27;;;;;;;28.63;27.03;;;22.90;65.90;;;;;;5034805;28;20472;-61
2023/01/07 12:01:57;;;;;;;28.80;27.20;;;22.80;65.80;;;;;;5034806;28;20551;-63
2023/01/07 12:04:26;;;;;;;28.10;26.60;;;22.80;65.90;;;;;;5034844;28;20445;-63
2023/01/07 12:06:56;;;;;;;28.23;26.77;;;22.80;65.60;;;;;;5034525;28;20857;-63
2023/01/07 12:09:33;;;;;;;28.80;27.40;;;22.80;65.50;;;;;;5035079;28;20449;-56
2023/01/07 12:12:30;;;;;;;29.57;27.77;;;22.80;65.50;;;;;;5034726;28;20526;-54
2023/01/07 12:14:59;;;;;;;29.43;27.83;;;22.80;64.60;;;;;;5034543;28;20441;-57
2023/01/07 12:17:29;;;;;;;29.03;27.30;;;22.80;67.70;;;;;;5034638;28;20463;-58
2023/01/07 12:20:10;;;;;;;29.50;27.90;;;22.70;68.30;;;;;;5034208;28;20449;-53
2023/01/07 12:22:47;;;;;;;29.37;27.77;;;22.80;68.70;;;;;;5034610;28;20469;-55
2023/01/07 12:25:34;;;;;;;28.90;27.40;;;22.80;68.50;;;;;;5034514;28;20441;-54
2023/01/07 12:28:11;;;;;;;31.47;29.50;;;22.80;69.20;;;;;;5034504;28;20441;-61
2023/01/07 12:31:05;;;;;;;28.93;27.47;;;22.80;68.40;;;;;;5034268;28;20433;-59
2023/01/07 12:33:48;;;;;;;29.70;28.03;;;22.80;68.70;;;;;;5034343;28;20786;-60
2023/01/07 12:36:20;;;;;;;30.47;28.87;;;22.80;68.40;;;;;;5034388;28;20456;-62
2023/01/07 12:38:50;;;;;;;30.07;28.10;;;22.80;68.20;;;;;;5034571;28;20857;-62
2023/01/07 12:41:22;;;;;;;28.87;27.37;;;22.90;68.30;;;;;;5034182;28;20831;-62
2023/01/07 12:43:58;;;;;;;29.67;27.80;;;22.90;69.00;;;;;;5034150;28;20797;-62